createdAt,value
2018-09-03T00:01:35.507Z,4.20
2018-09-03T00:03:38.673Z,4.10
2018-09-03T00:05:41.848Z,3.43
2018-09-03T00:07:45.012Z,4.23
2018-09-03T00:09:48.583Z,4.10
2018-09-03T00:11:52.073Z,4.07
2018-09-03T00:13:55.233Z,4.97
2018-09-03T00:15:58.851Z,5.10
2018-09-03T00:18:02.090Z,9.77
2018-09-03T00:20:05.301Z,5.63
2018-09-03T00:22:09.151Z,4.30
2018-09-03T00:24:12.364Z,4.57
2018-09-03T00:26:15.528Z,4.43
2018-09-03T00:28:18.692Z,4.40
2018-09-03T00:30:22.188Z,4.53
2018-09-03T00:32:30.716Z,4.50
2018-09-03T00:34:39.232Z,5.03
2018-09-03T00:36:47.992Z,4.60
2018-09-03T00:38:56.644Z,4.50
2018-09-03T00:41:05.407Z,4.63
2018-09-03T00:43:14.020Z,4.43
2018-09-03T00:45:22.729Z,4.70
2018-09-03T00:47:25.920Z,4.40
2018-09-03T00:49:30.510Z,4.37
2018-09-03T00:51:33.822Z,4.80
2018-09-03T00:53:37.003Z,4.07
2018-09-03T00:55:40.208Z,4.47
2018-09-03T00:57:43.378Z,5.00
2018-09-03T00:59:46.618Z,4.50
2018-09-03T01:01:50.452Z,5.10
2018-09-03T01:03:53.617Z,4.50
2018-09-03T01:05:56.776Z,4.30
2018-09-03T01:08:00.120Z,4.63
2018-09-03T01:10:03.300Z,4.13
2018-09-03T01:12:06.472Z,5.30
2018-09-03T01:14:09.828Z,4.80
2018-09-03T01:16:13.192Z,4.23
2018-09-03T01:18:16.388Z,5.10
2018-09-03T01:20:19.584Z,4.60
2018-09-03T01:22:23.060Z,4.83
2018-09-03T01:24:26.448Z,4.80
2018-09-03T01:26:29.646Z,4.30
2018-09-03T01:28:32.945Z,4.80
2018-09-03T01:30:36.140Z,4.70
2018-09-03T01:32:39.310Z,5.50
2018-09-03T01:34:42.704Z,4.50
2018-09-03T01:36:45.881Z,4.97
2018-09-03T01:38:49.076Z,4.73
2018-09-03T01:40:52.253Z,5.00
2018-09-03T01:42:55.475Z,5.30
2018-09-03T01:44:59.001Z,5.13
2018-09-03T01:47:02.280Z,7.10
2018-09-03T01:49:05.791Z,5.27
2018-09-03T01:51:08.963Z,5.10
2018-09-03T01:53:12.222Z,4.90
2018-09-03T01:55:15.719Z,7.37
2018-09-03T01:57:18.924Z,5.17
2018-09-03T01:59:22.098Z,6.03
2018-09-03T02:01:25.868Z,5.40
2018-09-03T02:03:29.067Z,5.00
2018-09-03T02:05:32.248Z,4.70
2018-09-03T02:07:35.978Z,5.20
2018-09-03T02:09:39.256Z,4.97
2018-09-03T02:11:42.780Z,4.87
2018-09-03T02:13:45.995Z,5.87
2018-09-03T02:15:49.175Z,5.70
2018-09-03T02:17:52.467Z,5.17
2018-09-03T02:19:55.988Z,5.37
2018-09-03T02:21:59.180Z,4.67
2018-09-03T02:24:03.020Z,5.60
2018-09-03T02:26:06.579Z,4.77
2018-09-03T02:28:09.792Z,5.87
2018-09-03T02:30:12.960Z,5.30
2018-09-03T02:32:16.161Z,5.30
2018-09-03T02:34:19.351Z,5.87
2018-09-03T02:36:22.904Z,5.77
2018-09-03T02:38:26.452Z,5.60
2018-09-03T02:40:29.655Z,5.30
2018-09-03T02:42:32.799Z,5.03
2018-09-03T02:44:36.284Z,5.90
2018-09-03T02:46:39.525Z,5.03
2018-09-03T02:48:42.892Z,5.30
2018-09-03T02:50:46.048Z,5.67
2018-09-03T02:52:49.849Z,6.27
2018-09-03T02:54:53.240Z,5.80
2018-09-03T02:56:56.490Z,5.80
2018-09-03T02:58:59.717Z,5.40
2018-09-03T03:01:02.883Z,5.10
2018-09-03T03:03:06.144Z,5.10
2018-09-03T03:05:09.979Z,5.70
2018-09-03T03:07:13.162Z,5.20
2018-09-03T03:09:16.658Z,5.63
2018-09-03T03:11:19.816Z,5.77
2018-09-03T03:13:23.027Z,6.40
2018-09-03T03:15:26.189Z,5.60
2018-09-03T03:17:29.604Z,6.27
2018-09-03T03:19:32.820Z,5.47
2018-09-03T03:21:36.053Z,5.67
2018-09-03T03:23:39.220Z,5.63
2018-09-03T03:25:43.088Z,4.90
2018-09-03T03:27:46.240Z,5.17
2018-09-03T03:29:49.408Z,5.60
2018-09-03T03:31:52.977Z,5.87
2018-09-03T03:33:56.490Z,5.57
2018-09-03T03:35:59.872Z,5.23
2018-09-03T03:38:03.236Z,5.53
2018-09-03T03:40:06.676Z,5.50
2018-09-03T03:42:10.164Z,5.50
2018-09-03T03:44:13.635Z,5.30
2018-09-03T03:46:16.805Z,5.07
2018-09-03T03:48:20.151Z,5.90
2018-09-03T03:50:23.324Z,6.90
2018-09-03T03:52:26.831Z,6.40
2018-09-03T03:54:29.996Z,6.13
2018-09-03T03:56:33.221Z,6.70
2018-09-03T03:58:36.487Z,6.60
2018-09-03T04:00:39.683Z,6.10
2018-09-03T04:02:42.855Z,5.53
2018-09-03T04:04:46.028Z,6.30
2018-09-03T04:06:49.192Z,5.87
2018-09-03T04:08:52.416Z,6.33
2018-09-03T04:10:55.595Z,5.50
2018-09-03T04:13:03.178Z,6.00
2018-09-03T04:15:08.064Z,6.00
2018-09-03T04:17:11.501Z,7.03
2018-09-03T04:19:14.682Z,6.67
2018-09-03T04:21:18.392Z,5.40
2018-09-03T04:23:21.752Z,5.67
2018-09-03T04:25:25.020Z,5.93
2018-09-03T04:27:28.568Z,5.83
2018-09-03T04:29:31.788Z,6.23
2018-09-03T04:31:34.971Z,6.03
2018-09-03T04:33:38.175Z,9.20
2018-09-03T04:35:41.802Z,6.77
2018-09-03T04:37:44.988Z,6.23
2018-09-03T04:39:48.388Z,6.23
2018-09-03T04:41:51.556Z,6.70
2018-09-03T04:43:54.863Z,6.43
2018-09-03T04:45:58.052Z,5.90
2018-09-03T04:48:01.262Z,5.20
2018-09-03T04:50:04.632Z,5.90
2018-09-03T04:52:07.820Z,5.60
2018-09-03T04:54:10.993Z,5.90
2018-09-03T04:56:14.183Z,5.30
2018-09-03T04:58:17.746Z,5.90
2018-09-03T05:00:20.992Z,4.90
2018-09-03T05:02:24.688Z,5.70
2018-09-03T05:04:27.852Z,5.27
2018-09-03T05:06:31.015Z,5.67
2018-09-03T05:08:34.402Z,6.03
2018-09-03T05:10:37.569Z,5.50
2018-09-03T05:12:40.749Z,5.43
2018-09-03T05:14:43.940Z,5.23
2018-09-03T05:16:47.217Z,6.00
2018-09-03T05:18:50.846Z,5.30
2018-09-03T05:20:54.352Z,5.63
2018-09-03T05:22:57.856Z,5.20
2018-09-03T05:25:01.482Z,5.10
2018-09-03T05:27:05.104Z,4.50
2018-09-03T05:29:08.272Z,5.60
2018-09-03T05:31:11.732Z,5.73
2018-09-03T05:33:15.069Z,5.10
2018-09-03T05:35:18.227Z,4.83
2018-09-03T05:37:21.486Z,4.47
2018-09-03T05:39:24.692Z,5.50
2018-09-03T05:41:28.242Z,5.57
2018-09-03T05:43:32.057Z,6.10
2018-09-03T05:45:35.236Z,5.43
2018-09-03T05:47:38.415Z,7.00
2018-09-03T05:49:42.016Z,5.27
2018-09-03T05:51:45.444Z,5.30
2018-09-03T05:53:48.808Z,5.47
2018-09-03T05:55:52.239Z,6.00
2018-09-03T05:57:55.436Z,5.13
2018-09-03T05:59:58.628Z,5.60
2018-09-03T06:02:02.198Z,5.77
2018-09-03T06:04:05.847Z,5.20
2018-09-03T06:06:09.036Z,5.13
2018-09-03T06:08:12.329Z,4.80
2018-09-03T06:10:16.172Z,5.00
2018-09-03T06:12:19.340Z,5.23
2018-09-03T06:14:22.596Z,5.10
2018-09-03T06:16:25.749Z,4.87
2018-09-03T06:18:28.971Z,5.37
2018-09-03T06:20:32.182Z,4.90
2018-09-03T06:22:35.554Z,4.90
2018-09-03T06:24:38.738Z,3.93
2018-09-03T06:26:42.105Z,5.00
2018-09-03T06:28:45.417Z,5.57
2018-09-03T06:30:48.572Z,5.63
2018-09-03T06:32:51.849Z,5.03
2018-09-03T06:34:55.179Z,5.60
2018-09-03T06:36:58.561Z,7.13
2018-09-03T06:39:01.833Z,5.00
2018-09-03T06:41:05.425Z,4.40
2018-09-03T06:43:08.584Z,9.53
2018-09-03T06:45:12.133Z,6.67
2018-09-03T06:47:15.316Z,4.30
2018-09-03T06:49:18.516Z,5.80
2018-09-03T06:51:22.087Z,6.53
2018-09-03T06:53:25.296Z,3.90
2018-09-03T06:55:28.652Z,4.80
2018-09-03T06:57:32.432Z,4.60
2018-09-03T06:59:35.648Z,5.13
2018-09-03T07:01:39.243Z,4.60
2018-09-03T07:03:43.087Z,4.67
2018-09-03T07:05:46.532Z,5.20
2018-09-03T07:07:49.888Z,5.00
2018-09-03T07:09:53.244Z,4.63
2018-09-03T07:11:56.595Z,4.43
2018-09-03T07:13:59.756Z,5.07
2018-09-03T07:16:03.260Z,4.60
2018-09-03T07:18:06.436Z,4.93
2018-09-03T07:20:09.981Z,4.80
2018-09-03T07:22:13.566Z,4.93
2018-09-03T07:24:16.924Z,4.90
2018-09-03T07:26:20.092Z,4.47
2018-09-03T07:28:23.820Z,4.97
2018-09-03T07:30:27.316Z,5.30
2018-09-03T07:32:30.481Z,4.93
2018-09-03T07:34:33.904Z,4.37
2018-09-03T07:36:37.068Z,5.30
2018-09-03T07:38:40.384Z,5.00
2018-09-03T07:40:44.229Z,6.30
2018-09-03T07:42:47.448Z,5.73
2018-09-03T07:44:50.973Z,5.07
2018-09-03T07:46:54.496Z,4.20
2018-09-03T07:48:57.669Z,4.63
2018-09-03T07:51:01.389Z,4.70
2018-09-03T07:53:05.042Z,4.73
2018-09-03T07:55:08.239Z,4.50
2018-09-03T07:57:11.609Z,5.00
2018-09-03T07:59:14.887Z,4.87
2018-09-03T08:01:18.303Z,4.30
2018-09-03T08:03:21.650Z,4.20
2018-09-03T08:05:24.849Z,4.70
2018-09-03T08:07:28.102Z,4.43
2018-09-03T08:09:31.735Z,4.63
2018-09-03T08:11:36.280Z,5.50
2018-09-03T08:13:41.768Z,4.97
2018-09-03T08:15:45.184Z,4.20
2018-09-03T08:17:48.522Z,4.10
2018-09-03T08:19:51.756Z,5.13
2018-09-03T08:21:55.132Z,4.83
2018-09-03T08:23:58.327Z,5.13
2018-09-03T08:26:02.224Z,4.40
2018-09-03T08:28:05.924Z,7.07
2018-09-03T08:30:09.146Z,5.43
2018-09-03T08:32:12.900Z,5.10
2018-09-03T08:34:16.056Z,4.10
2018-09-03T08:36:19.600Z,5.07
2018-09-03T08:38:23.120Z,5.97
2018-09-03T08:40:26.325Z,4.80
2018-09-03T08:42:29.695Z,5.13
2018-09-03T08:44:32.948Z,5.20
2018-09-03T08:46:36.736Z,3.70
2018-09-03T08:48:40.116Z,5.17
2018-09-03T08:50:43.287Z,5.60
2018-09-03T08:52:46.707Z,4.10
2018-09-03T08:54:50.175Z,4.47
2018-09-03T08:56:53.774Z,4.40
2018-09-03T08:58:57.420Z,5.53
2018-09-03T09:01:00.580Z,5.10
2018-09-03T09:03:04.177Z,4.63
2018-09-03T09:05:07.688Z,4.73
2018-09-03T09:07:11.189Z,5.17
2018-09-03T09:09:14.409Z,7.83
2018-09-03T09:11:17.922Z,6.80
2018-09-03T09:13:21.131Z,5.20
2018-09-03T09:15:24.412Z,5.50
2018-09-03T09:17:27.775Z,6.53
2018-09-03T09:19:31.201Z,5.63
2018-09-03T09:21:34.368Z,5.17
2018-09-03T09:23:37.520Z,4.93
2018-09-03T09:25:41.712Z,5.10
2018-09-03T09:27:45.888Z,5.70
2018-09-03T09:29:49.690Z,6.27
2018-09-03T09:31:55.546Z,5.20
2018-09-03T09:33:59.225Z,5.47
2018-09-03T09:36:02.763Z,7.03
2018-09-03T09:38:06.310Z,6.43
2018-09-03T09:40:09.844Z,6.77
2018-09-03T09:42:13.013Z,5.47
2018-09-03T09:44:16.180Z,5.70
2018-09-03T09:46:19.723Z,6.97
2018-09-03T09:48:22.894Z,5.80
2018-09-03T09:50:26.265Z,6.73
2018-09-03T09:52:29.475Z,6.50
2018-09-03T09:54:32.659Z,6.70
2018-09-03T09:56:36.192Z,6.90
2018-09-03T09:58:39.435Z,6.27
2018-09-03T10:00:48.048Z,6.20
2018-09-03T10:02:51.972Z,6.40
2018-09-03T10:04:55.295Z,6.17
2018-09-03T10:06:58.448Z,6.70
2018-09-03T10:09:01.759Z,7.20
2018-09-03T10:11:05.784Z,7.97
2018-09-03T10:13:09.345Z,6.53
2018-09-03T10:15:12.560Z,7.60
2018-09-03T10:17:15.770Z,8.27
2018-09-03T10:19:19.427Z,6.90
2018-09-03T10:21:22.619Z,7.70
2018-09-03T10:23:25.840Z,6.67
2018-09-03T10:25:29.529Z,6.23
2018-09-03T10:27:32.701Z,7.63
2018-09-03T10:29:37.089Z,6.97
2018-09-03T10:31:40.391Z,6.87
2018-09-03T10:33:43.580Z,7.40
2018-09-03T10:35:46.779Z,6.73
2018-09-03T10:37:50.156Z,7.33
2018-09-03T10:39:53.976Z,6.33
2018-09-03T10:41:57.491Z,6.67
2018-09-03T10:44:00.885Z,6.47
2018-09-03T10:46:04.232Z,7.47
2018-09-03T10:48:07.732Z,6.60
2018-09-03T10:50:10.966Z,7.53
2018-09-03T10:52:14.382Z,7.03
2018-09-03T10:54:17.761Z,7.93
2018-09-03T10:56:21.309Z,6.93
2018-09-03T10:58:24.521Z,7.20
2018-09-03T11:00:27.699Z,7.30
2018-09-03T11:02:31.076Z,6.57
2018-09-03T11:04:34.373Z,7.57
2018-09-03T11:06:37.732Z,7.93
2018-09-03T11:08:40.943Z,7.30
2018-09-03T11:10:44.140Z,6.60
2018-09-03T11:12:47.344Z,6.33
2018-09-03T11:14:50.915Z,6.77
2018-09-03T11:16:54.128Z,7.80
2018-09-03T11:18:57.287Z,7.40
2018-09-03T11:21:00.730Z,8.27
2018-09-03T11:23:04.071Z,7.23
2018-09-03T11:25:07.240Z,7.50
2018-09-03T11:27:10.596Z,7.40
2018-09-03T11:29:13.752Z,7.17
2018-09-03T11:31:17.372Z,7.50
2018-09-03T11:33:20.956Z,7.63
2018-09-03T11:35:25.485Z,7.77
2018-09-03T11:37:28.649Z,7.20
2018-09-03T11:39:31.866Z,7.10
2018-09-03T11:41:35.384Z,10.20
2018-09-03T11:43:38.660Z,8.00
2018-09-03T11:45:42.128Z,7.93
2018-09-03T11:47:45.840Z,6.90
2018-09-03T11:49:49.045Z,6.90
2018-09-03T11:51:52.800Z,7.17
2018-09-03T11:53:56.575Z,8.30
2018-09-03T11:56:00.288Z,7.58
2018-09-03T11:58:04.351Z,6.85
2018-09-03T12:00:10.334Z,6.75
2018-09-03T12:02:14.212Z,6.78
2018-09-03T12:04:17.937Z,6.08
2018-09-03T12:06:21.651Z,6.30
2018-09-03T12:08:25.364Z,6.37
2018-09-03T12:10:29.316Z,7.25
2018-09-03T12:12:32.840Z,7.30
2018-09-03T12:14:39.226Z,7.40
2018-09-03T12:16:42.404Z,6.67
2018-09-03T12:18:46.039Z,6.17
2018-09-03T12:20:49.213Z,6.15
2018-09-03T12:22:52.577Z,7.35
2018-09-03T12:24:55.756Z,7.45
2018-09-03T12:26:59.279Z,6.53
2018-09-03T12:29:02.748Z,7.50
2018-09-03T12:31:07.191Z,6.85
2018-09-03T12:33:10.785Z,7.75
2018-09-03T12:35:13.946Z,8.15
2018-09-03T12:37:17.189Z,8.10
2018-09-03T12:39:20.360Z,7.13
2018-09-03T12:41:23.537Z,8.33
2018-09-03T12:43:26.957Z,8.80
2018-09-03T12:45:36.281Z,7.92
2018-09-03T12:47:39.456Z,7.65
2018-09-03T12:49:42.684Z,7.95
2018-09-03T12:51:46.131Z,8.10
2018-09-03T12:53:49.291Z,7.78
2018-09-03T12:55:52.481Z,7.65
2018-09-03T12:57:55.719Z,8.70
2018-09-03T13:00:05.152Z,7.87
2018-09-03T13:02:03.294Z,7.00
2018-09-03T13:04:06.830Z,7.45
2018-09-03T13:06:10.037Z,7.70
2018-09-03T13:08:13.450Z,8.03
2018-09-03T13:10:16.725Z,7.45
2018-09-03T13:12:19.916Z,8.30
2018-09-03T13:14:23.188Z,7.83
2018-09-03T13:16:26.469Z,8.15
2018-09-03T13:18:29.992Z,9.25
2018-09-03T13:20:33.254Z,8.23
2018-09-03T13:22:36.580Z,8.80
2018-09-03T13:24:39.816Z,8.80
2018-09-03T13:26:43.496Z,8.70
2018-09-03T13:28:47.222Z,7.67
2018-09-03T13:30:50.407Z,8.47
2018-09-03T13:32:53.807Z,8.00
2018-09-03T13:34:57.464Z,8.63
2018-09-03T13:37:01.184Z,8.63
2018-09-03T13:39:07.644Z,8.75
2018-09-03T13:41:11.476Z,10.03
2018-09-03T13:43:15.570Z,9.40
2018-09-03T13:45:19.641Z,8.78
2018-09-03T13:47:23.660Z,9.80
2018-09-03T13:49:27.422Z,8.98
2018-09-03T13:51:31.503Z,8.20
2018-09-03T13:53:35.222Z,8.70
2018-09-03T13:55:39.516Z,10.10
2018-09-03T13:57:43.333Z,10.05
2018-09-03T13:59:47.596Z,9.08
2018-09-03T14:01:51.356Z,8.65
2018-09-03T14:03:54.568Z,9.47
2018-09-03T14:05:58.593Z,9.63
2018-09-03T14:08:02.080Z,7.97
2018-09-03T14:10:05.880Z,7.42
2018-09-03T14:12:10.674Z,8.73
2018-09-03T14:14:14.708Z,8.75
2018-09-03T14:16:18.099Z,8.30
2018-09-03T14:18:21.898Z,20.05
2018-09-03T14:20:26.501Z,8.57
2018-09-03T14:22:30.024Z,8.93
2018-09-03T14:24:34.942Z,8.60
2018-09-03T14:26:38.435Z,8.73
2018-09-03T14:28:41.632Z,9.07
2018-09-03T14:30:45.016Z,9.00
2018-09-03T14:32:48.251Z,9.60
2018-09-03T14:34:52.041Z,11.87
2018-09-03T14:36:56.178Z,9.10
2018-09-03T14:39:00.056Z,9.00
2018-09-03T14:41:03.943Z,7.97
2018-09-03T14:43:07.768Z,8.45
2018-09-03T14:45:11.655Z,9.03
2018-09-03T14:47:15.760Z,8.73
2018-09-03T14:49:19.642Z,8.60
2018-09-03T14:51:23.581Z,9.03
2018-09-03T14:53:27.516Z,8.80
2018-09-03T14:55:31.580Z,9.05
2018-09-03T14:57:35.325Z,8.83
2018-09-03T14:59:39.280Z,9.35
2018-09-03T15:01:43.001Z,9.73
2018-09-03T15:03:46.801Z,8.63
2018-09-03T15:05:50.688Z,9.03
2018-09-03T15:07:54.474Z,8.50
2018-09-03T15:09:58.523Z,9.10
2018-09-03T15:12:02.269Z,7.75
2018-09-03T15:14:06.282Z,8.95
2018-09-03T15:16:10.632Z,9.35
2018-09-03T15:18:14.344Z,9.10
2018-09-03T15:20:18.072Z,9.48
2018-09-03T15:22:22.441Z,9.48
2018-09-03T15:24:26.250Z,8.85
2018-09-03T15:26:29.719Z,9.47
2018-09-03T15:28:33.077Z,10.20
2018-09-03T15:30:37.629Z,9.33
2018-09-03T15:32:40.778Z,8.70
2018-09-03T15:34:44.756Z,9.53
2018-09-03T15:36:48.196Z,9.37
2018-09-03T15:38:51.368Z,9.97
2018-09-03T15:40:55.122Z,8.70
2018-09-03T15:42:58.824Z,9.03
2018-09-03T15:45:02.743Z,8.95
2018-09-03T15:47:07.139Z,9.03
2018-09-03T15:49:10.973Z,8.83
2018-09-03T15:51:14.204Z,9.20
2018-09-03T15:53:17.733Z,8.60
2018-09-03T15:55:21.782Z,8.23
2018-09-03T15:57:24.953Z,8.60
2018-09-03T15:59:29.072Z,8.98
2018-09-03T16:01:32.835Z,8.75
2018-09-03T16:03:36.150Z,9.73
2018-09-03T16:05:39.367Z,7.70
2018-09-03T16:07:42.555Z,7.60
2018-09-03T16:09:45.752Z,7.03
2018-09-03T16:11:48.940Z,7.13
2018-09-03T16:13:52.096Z,7.33
2018-09-03T16:15:55.276Z,7.50
2018-09-03T16:17:58.749Z,7.17
2018-09-03T16:20:04.200Z,6.40
2018-09-03T16:22:07.440Z,6.50
2018-09-03T16:24:10.901Z,7.40
2018-09-03T16:26:14.140Z,8.20
2018-09-03T16:28:17.920Z,7.03
2018-09-03T16:30:21.353Z,6.27
2018-09-03T16:32:24.524Z,7.23
2018-09-03T16:34:27.712Z,7.50
2018-09-03T16:36:31.117Z,6.53
2018-09-03T16:38:34.870Z,7.10
2018-09-03T16:40:38.308Z,6.57
2018-09-03T16:42:41.704Z,6.27
2018-09-03T16:44:44.880Z,6.67
2018-09-03T16:46:48.081Z,6.20
2018-09-03T16:48:51.424Z,5.67
2018-09-03T16:50:54.588Z,6.80
2018-09-03T16:52:57.940Z,7.03
2018-09-03T16:55:01.427Z,6.33
2018-09-03T16:57:05.072Z,5.83
2018-09-03T16:59:08.240Z,6.40
2018-09-03T17:01:11.825Z,7.03
2018-09-03T17:03:15.166Z,6.13
2018-09-03T17:05:18.350Z,6.87
2018-09-03T17:07:21.573Z,5.50
2018-09-03T17:09:24.888Z,6.70
2018-09-03T17:11:28.068Z,4.97
2018-09-03T17:13:31.331Z,7.37
2018-09-03T17:15:34.784Z,6.43
2018-09-03T17:17:37.969Z,5.47
2018-09-03T17:19:41.158Z,6.37
2018-09-03T17:21:44.360Z,5.93
2018-09-03T17:23:47.569Z,6.67
2018-09-03T17:25:50.849Z,6.27
2018-09-03T17:27:54.238Z,5.80
2018-09-03T17:29:58.096Z,6.30
2018-09-03T17:32:01.268Z,5.50
2018-09-03T17:34:04.611Z,5.63
2018-09-03T17:36:07.964Z,5.73
2018-09-03T17:38:11.189Z,7.10
2018-09-03T17:40:14.728Z,6.03
2018-09-03T17:42:18.293Z,6.20
2018-09-03T17:44:21.488Z,6.40
2018-09-03T17:46:24.686Z,6.30
2018-09-03T17:48:27.886Z,7.00
2018-09-03T17:50:31.086Z,7.13
2018-09-03T17:52:34.488Z,5.50
2018-09-03T17:54:37.867Z,13.57
2018-09-03T17:56:41.138Z,6.40
2018-09-03T17:58:44.643Z,5.90
2018-09-03T18:00:47.871Z,5.60
2018-09-03T18:02:51.900Z,5.63
2018-09-03T18:04:55.186Z,6.23
2018-09-03T18:06:58.726Z,5.67
2018-09-03T18:09:02.016Z,5.03
2018-09-03T18:11:05.291Z,6.10
2018-09-03T18:13:08.589Z,6.17
2018-09-03T18:15:12.536Z,6.70
2018-09-03T18:17:15.728Z,5.70
2018-09-03T18:19:19.025Z,5.90
2018-09-03T18:21:22.569Z,5.63
2018-09-03T18:23:25.916Z,6.07
2018-09-03T18:25:29.446Z,6.77
2018-09-03T18:27:32.636Z,6.00
2018-09-03T18:29:36.122Z,6.17
2018-09-03T18:31:39.659Z,6.27
2018-09-03T18:33:42.856Z,5.30
2018-09-03T18:35:46.392Z,5.70
2018-09-03T18:37:50.260Z,6.00
2018-09-03T18:39:53.444Z,6.40
2018-09-03T18:41:56.800Z,5.40
2018-09-03T18:44:00.131Z,4.90
2018-09-03T18:46:03.671Z,5.50
2018-09-03T18:48:06.836Z,5.70
2018-09-03T18:50:12.116Z,5.70
2018-09-03T18:52:15.364Z,5.30
2018-09-03T18:54:18.528Z,4.93
2018-09-03T18:56:22.064Z,6.27
2018-09-03T18:58:25.427Z,4.97
2018-09-03T19:00:29.772Z,5.47
2018-09-03T19:02:33.433Z,5.40
2018-09-03T19:04:36.612Z,5.40
2018-09-03T19:06:39.773Z,5.67
2018-09-03T19:08:43.306Z,5.37
2018-09-03T19:10:46.502Z,5.43
2018-09-03T19:12:49.656Z,5.53
2018-09-03T19:14:53.350Z,5.90
2018-09-03T19:16:56.630Z,6.10
2018-09-03T19:18:59.816Z,5.80
2018-09-03T19:21:03.547Z,5.63
2018-09-03T19:23:07.631Z,5.60
2018-09-03T19:25:10.793Z,5.00
2018-09-03T19:27:14.665Z,5.43
2018-09-03T19:29:17.903Z,5.00
2018-09-03T19:31:21.080Z,5.53
2018-09-03T19:33:24.500Z,4.77
2018-09-03T19:35:28.008Z,5.83
2018-09-03T19:37:31.208Z,5.50
2018-09-03T19:39:34.488Z,5.40
2018-09-03T19:41:37.688Z,4.73
2018-09-03T19:43:40.864Z,4.40
2018-09-03T19:45:44.552Z,6.10
2018-09-03T19:47:47.752Z,4.77
2018-09-03T19:49:50.925Z,5.40
2018-09-03T19:51:54.163Z,7.00
2018-09-03T19:53:57.567Z,5.70
2018-09-03T19:56:01.043Z,6.37
2018-09-03T19:58:04.952Z,5.77
2018-09-03T20:00:08.494Z,5.00
2018-09-03T20:02:11.712Z,5.50
2018-09-03T20:04:15.491Z,5.43
2018-09-03T20:06:18.825Z,6.17
2018-09-03T20:08:22.144Z,5.80
2018-09-03T20:10:25.847Z,5.60
2018-09-03T20:12:29.039Z,4.63
2018-09-03T20:14:32.548Z,5.03
2018-09-03T20:16:36.248Z,5.90
2018-09-03T20:18:39.789Z,5.17
2018-09-03T20:20:43.016Z,4.60
2018-09-03T20:22:46.229Z,5.03
2018-09-03T20:24:49.931Z,4.97
2018-09-03T20:26:53.492Z,4.97
2018-09-03T20:28:56.701Z,4.53
2018-09-03T20:31:00.037Z,5.40
2018-09-03T20:33:03.396Z,5.60
2018-09-03T20:35:06.948Z,4.90
2018-09-03T20:37:10.534Z,4.33
2018-09-03T20:39:13.703Z,5.43
2018-09-03T20:41:16.896Z,5.27
2018-09-03T20:43:20.093Z,4.63
2018-09-03T20:45:23.253Z,4.77
2018-09-03T20:47:26.413Z,4.27
2018-09-03T20:49:29.712Z,5.40
2018-09-03T20:51:33.673Z,5.07
2018-09-03T20:53:36.980Z,5.37
2018-09-03T20:55:40.412Z,4.80
2018-09-03T20:57:43.674Z,9.50
2018-09-03T20:59:47.464Z,6.87
2018-09-03T21:01:50.656Z,5.40
2018-09-03T21:03:53.859Z,4.80
2018-09-03T21:05:57.216Z,4.33
2018-09-03T21:08:00.404Z,4.40
2018-09-03T21:10:04.066Z,5.20
2018-09-03T21:12:07.244Z,5.30
2018-09-03T21:14:10.412Z,4.70
2018-09-03T21:16:13.589Z,4.50
2018-09-03T21:18:17.280Z,5.33
2018-09-03T21:20:21.149Z,4.67
2018-09-03T21:22:24.581Z,4.83
2018-09-03T21:24:28.092Z,4.30
2018-09-03T21:26:31.276Z,4.50
2018-09-03T21:28:34.587Z,5.00
2018-09-03T21:30:37.890Z,4.10
2018-09-03T21:32:41.165Z,4.50
2018-09-03T21:34:44.337Z,4.00
2018-09-03T21:36:48.044Z,4.47
2018-09-03T21:38:51.249Z,4.53
2018-09-03T21:40:54.442Z,4.40
2018-09-03T21:42:57.641Z,4.53
2018-09-03T21:45:01.362Z,4.30
2018-09-03T21:47:04.805Z,3.97
2018-09-03T21:49:09.356Z,4.20
2018-09-03T21:51:12.718Z,4.60
2018-09-03T21:53:15.908Z,4.13
2018-09-03T21:55:19.777Z,3.40
2018-09-03T21:57:23.313Z,4.53
2018-09-03T21:59:27.929Z,4.03
2018-09-03T22:01:31.115Z,3.83
2018-09-03T22:03:34.662Z,4.33
2018-09-03T22:05:37.841Z,4.40
2018-09-03T22:07:41.328Z,3.70
2018-09-03T22:09:45.396Z,3.60
2018-09-03T22:11:48.560Z,5.20
2018-09-03T22:13:51.729Z,5.10
2018-09-03T22:15:55.580Z,7.00
2018-09-03T22:17:58.950Z,4.97
2018-09-03T22:20:02.367Z,3.83
2018-09-03T22:22:06.242Z,4.77
2018-09-03T22:24:09.422Z,3.50
2018-09-03T22:26:12.971Z,3.73
2018-09-03T22:28:16.268Z,4.50
2018-09-03T22:30:19.472Z,3.70
2018-09-03T22:32:22.781Z,4.20
2018-09-03T22:34:25.948Z,4.40
2018-09-03T22:36:29.127Z,3.80
2018-09-03T22:38:32.316Z,3.73
2018-09-03T22:40:35.524Z,3.53
2018-09-03T22:42:38.711Z,3.63
2018-09-03T22:44:41.900Z,3.93
2018-09-03T22:46:45.231Z,3.93
2018-09-03T22:48:48.415Z,4.13
2018-09-03T22:50:51.560Z,3.40
2018-09-03T22:52:54.756Z,3.90
2018-09-03T22:54:58.044Z,4.07
2018-09-03T22:57:01.405Z,3.70
2018-09-03T22:59:05.488Z,4.07
2018-09-03T23:01:08.691Z,4.27
2018-09-03T23:03:12.235Z,3.80
2018-09-03T23:05:16.092Z,3.90
2018-09-03T23:07:19.616Z,3.87
2018-09-03T23:09:23.246Z,3.97
2018-09-03T23:11:26.392Z,4.30
2018-09-03T23:13:29.597Z,3.80
2018-09-03T23:15:32.972Z,4.00
2018-09-03T23:17:36.147Z,4.10
2018-09-03T23:19:39.336Z,3.70
2018-09-03T23:21:42.908Z,4.40
2018-09-03T23:23:46.132Z,3.30
2018-09-03T23:25:49.501Z,3.50
2018-09-03T23:27:53.084Z,3.70
2018-09-03T23:29:56.276Z,4.13
2018-09-03T23:31:59.470Z,4.00
2018-09-03T23:34:03.065Z,3.87
2018-09-03T23:36:06.412Z,4.03
2018-09-03T23:38:09.607Z,3.33
2018-09-03T23:40:12.836Z,4.60
2018-09-03T23:42:16.028Z,4.20
2018-09-03T23:44:19.221Z,4.07
2018-09-03T23:46:22.405Z,3.30
2018-09-03T23:48:25.586Z,4.57
2018-09-03T23:50:29.844Z,4.40
2018-09-03T23:52:33.280Z,3.80
2018-09-03T23:54:36.480Z,4.20
2018-09-03T23:56:39.696Z,4.20
2018-09-03T23:58:43.216Z,4.57
